KCMA

Camarillo Airport

Camarillo, California, USA
METAR KCMA 162355Z 20004KT 6SM HZ FU CLR 17/09 A2970 RMK AO2 SLP065 T01720094 10206 20161 51005
Observed Flight Rules
Dec-16 @ 23:55 UTC (20 minutes ago) Visual Flight Rules
Wind Visibility Clouds Conditions
200° at 4 knots 6 miles
  • Clear skies
  • Haze
  • Smoke
Temperatures Readings
Current 17°C / 63°F
Dewpoint 9°C / 48°F
Humidity 59%
Altimeter 29.7" Hg
Pressure 1006.5 hPa
Elevation 23
METAR KCMA 162355Z 20004KT 6SM HZ FU CLR 17/09 A2970 RMK AO2 SLP065 T01720094 10206 20161 51005
Observed Flight Rules
Dec-16 @ 23:55 UTC
(20 minutes ago)
VFR
Wind Visibility
200° at 4 knots 6 miles
Clouds
  • Clear skies
Conditions
  • Haze
  • Smoke
Temperature Dewpoint
17°C / 63°F 9°C / 48°F
Humidity Altimeter Pressure
59% 29.7" Hg 1006.5 hPa